sensor_id;sensor_type;location;lat;lon;timestamp;pressure;altitude;pressure_sealevel;temperature;humidity
5651;BME280;40241;52.684;9.758;2022-10-30T00:00:14;101505.16;;;16.99;65.77
5651;BME280;40241;52.684;9.758;2022-10-30T00:02:39;101502.66;;;16.95;65.87
5651;BME280;40241;52.684;9.758;2022-10-30T00:05:05;101506.47;;;16.92;65.79
5651;BME280;40241;52.684;9.758;2022-10-30T00:07:31;101495.84;;;16.91;65.82
5651;BME280;40241;52.684;9.758;2022-10-30T00:09:57;101496.09;;;16.93;66.04
5651;BME280;40241;52.684;9.758;2022-10-30T00:12:22;101486.00;;;16.90;66.02
5651;BME280;40241;52.684;9.758;2022-10-30T00:14:48;101485.25;;;16.89;66.12
5651;BME280;40241;52.684;9.758;2022-10-30T00:17:13;101474.13;;;16.89;66.10
5651;BME280;40241;52.684;9.758;2022-10-30T00:19:38;101467.34;;;16.85;66.10
5651;BME280;40241;52.684;9.758;2022-10-30T00:22:04;101461.31;;;16.81;66.36
5651;BME280;40241;52.684;9.758;2022-10-30T00:24:29;101470.66;;;16.83;66.03
5651;BME280;40241;52.684;9.758;2022-10-30T00:26:55;101477.19;;;16.86;66.29
5651;BME280;40241;52.684;9.758;2022-10-30T00:29:20;101464.78;;;16.92;66.24
5651;BME280;40241;52.684;9.758;2022-10-30T00:31:49;101439.00;;;16.92;66.29
5651;BME280;40241;52.684;9.758;2022-10-30T00:34:15;101440.78;;;16.89;66.30
5651;BME280;40241;52.684;9.758;2022-10-30T00:36:40;101476.88;;;16.95;66.31
5651;BME280;40241;52.684;9.758;2022-10-30T00:39:05;101454.13;;;16.96;66.28
5651;BME280;40241;52.684;9.758;2022-10-30T00:41:31;101446.53;;;16.97;66.25
5651;BME280;40241;52.684;9.758;2022-10-30T00:43:56;101454.59;;;17.00;66.28
5651;BME280;40241;52.684;9.758;2022-10-30T00:48:51;101464.47;;;17.01;66.39
5651;BME280;40241;52.684;9.758;2022-10-30T00:51:19;101473.06;;;16.98;66.20
5651;BME280;40241;52.684;9.758;2022-10-30T00:53:45;101469.81;;;16.94;66.35
5651;BME280;40241;52.684;9.758;2022-10-30T00:56:13;101478.91;;;16.94;66.52
5651;BME280;40241;52.684;9.758;2022-10-30T00:58:47;101471.06;;;16.93;66.51
5651;BME280;40241;52.684;9.758;2022-10-30T01:01:16;101474.59;;;16.93;66.42
5651;BME280;40241;52.684;9.758;2022-10-30T01:03:45;101474.91;;;16.90;66.40
5651;BME280;40241;52.684;9.758;2022-10-30T01:06:12;101477.44;;;16.88;66.37
5651;BME280;40241;52.684;9.758;2022-10-30T01:08:40;101446.38;;;16.84;66.52
5651;BME280;40241;52.684;9.758;2022-10-30T01:11:06;101468.38;;;16.82;66.39
5651;BME280;40241;52.684;9.758;2022-10-30T01:13:33;101448.41;;;16.83;66.62
5651;BME280;40241;52.684;9.758;2022-10-30T01:16:39;101447.13;;;16.84;66.84
5651;BME280;40241;52.684;9.758;2022-10-30T01:35:56;101456.22;;;16.85;66.76
5651;BME280;40241;52.684;9.758;2022-10-30T01:38:31;101449.66;;;16.88;66.52
5651;BME280;40241;52.684;9.758;2022-10-30T01:40:59;101452.91;;;16.86;66.49
5651;BME280;40241;52.684;9.758;2022-10-30T01:43:24;101468.09;;;16.85;66.54
5651;BME280;40241;52.684;9.758;2022-10-30T01:51:38;101437.28;;;16.83;66.89
5651;BME280;40241;52.684;9.758;2022-10-30T01:59:28;101445.34;;;16.87;66.59
5651;BME280;40241;52.684;9.758;2022-10-30T02:01:56;101443.31;;;16.87;66.36
5651;BME280;40241;52.684;9.758;2022-10-30T02:04:23;101444.09;;;16.88;66.77
5651;BME280;40241;52.684;9.758;2022-10-30T02:06:49;101453.66;;;16.92;66.53
5651;BME280;40241;52.684;9.758;2022-10-30T02:09:15;101457.44;;;16.95;66.64
5651;BME280;40241;52.684;9.758;2022-10-30T02:11:41;101456.16;;;16.96;66.54
5651;BME280;40241;52.684;9.758;2022-10-30T02:14:08;101457.66;;;16.97;66.50
5651;BME280;40241;52.684;9.758;2022-10-30T02:16:40;101465.47;;;16.98;66.52
5651;BME280;40241;52.684;9.758;2022-10-30T02:19:06;101454.34;;;16.98;66.54
5651;BME280;40241;52.684;9.758;2022-10-30T02:21:32;101462.47;;;16.96;66.46
5651;BME280;40241;52.684;9.758;2022-10-30T02:23:58;101459.41;;;17.00;66.56
5651;BME280;40241;52.684;9.758;2022-10-30T02:26:23;101463.69;;;17.01;66.41
5651;BME280;40241;52.684;9.758;2022-10-30T02:28:48;101476.84;;;17.00;66.52
5651;BME280;40241;52.684;9.758;2022-10-30T02:31:14;101457.66;;;16.97;66.41
5651;BME280;40241;52.684;9.758;2022-10-30T02:33:44;101459.16;;;16.98;66.49
5651;BME280;40241;52.684;9.758;2022-10-30T02:36:10;101461.69;;;16.96;66.42
5651;BME280;40241;52.684;9.758;2022-10-30T02:38:35;101465.28;;;16.91;66.41
5651;BME280;40241;52.684;9.758;2022-10-30T02:41:00;101464.31;;;16.88;66.41
5651;BME280;40241;52.684;9.758;2022-10-30T02:43:26;101467.56;;;16.87;66.28
5651;BME280;40241;52.684;9.758;2022-10-30T02:45:51;101463.06;;;16.84;66.45
5651;BME280;40241;52.684;9.758;2022-10-30T02:48:17;101485.06;;;16.82;66.47
5651;BME280;40241;52.684;9.758;2022-10-30T02:50:42;101478.00;;;16.81;66.45
5651;BME280;40241;52.684;9.758;2022-10-30T02:53:07;101470.16;;;16.79;66.38
5651;BME280;40241;52.684;9.758;2022-10-30T02:55:33;101473.75;;;16.74;66.39
5651;BME280;40241;52.684;9.758;2022-10-30T02:57:58;101470.97;;;16.69;66.41
5651;BME280;40241;52.684;9.758;2022-10-30T03:00:24;101470.50;;;16.65;66.40
5651;BME280;40241;52.684;9.758;2022-10-30T03:02:54;101469.50;;;16.62;66.29
5651;BME280;40241;52.684;9.758;2022-10-30T03:05:20;101463.47;;;16.58;66.07
5651;BME280;40241;52.684;9.758;2022-10-30T03:07:45;101460.72;;;16.53;66.33
5651;BME280;40241;52.684;9.758;2022-10-30T03:10:13;101463.28;;;16.51;66.46
5651;BME280;40241;52.684;9.758;2022-10-30T03:12:38;101458.72;;;16.47;66.43
5651;BME280;40241;52.684;9.758;2022-10-30T03:15:04;101466.81;;;16.45;66.57
5651;BME280;40241;52.684;9.758;2022-10-30T03:17:29;101462.53;;;16.44;66.34
5651;BME280;40241;52.684;9.758;2022-10-30T03:19:55;101460.78;;;16.41;66.74
5651;BME280;40241;52.684;9.758;2022-10-30T03:22:20;101462.03;;;16.40;66.34
5651;BME280;40241;52.684;9.758;2022-10-30T03:24:45;101465.31;;;16.39;66.41
5651;BME280;40241;52.684;9.758;2022-10-30T03:27:11;101460.78;;;16.36;66.47
5651;BME280;40241;52.684;9.758;2022-10-30T03:29:36;101469.63;;;16.34;66.30
5651;BME280;40241;52.684;9.758;2022-10-30T03:32:01;101465.84;;;16.32;66.30
5651;BME280;40241;52.684;9.758;2022-10-30T03:34:27;101464.13;;;16.29;66.35
5651;BME280;40241;52.684;9.758;2022-10-30T03:36:52;101462.59;;;16.28;66.08
5651;BME280;40241;52.684;9.758;2022-10-30T03:39:18;101473.97;;;16.24;66.03
5651;BME280;40241;52.684;9.758;2022-10-30T03:41:43;101461.63;;;16.20;66.22
5651;BME280;40241;52.684;9.758;2022-10-30T03:44:09;101464.66;;;16.16;66.29
5651;BME280;40241;52.684;9.758;2022-10-30T03:46:34;101459.88;;;16.17;66.32
5651;BME280;40241;52.684;9.758;2022-10-30T03:49:00;101457.63;;;16.15;66.26
5651;BME280;40241;52.684;9.758;2022-10-30T03:51:25;101460.16;;;16.13;66.31
5651;BME280;40241;52.684;9.758;2022-10-30T03:53:50;101461.69;;;16.03;66.32
5651;BME280;40241;52.684;9.758;2022-10-30T03:56:16;101468.47;;;16.08;66.24
5651;BME280;40241;52.684;9.758;2022-10-30T03:58:44;101461.97;;;16.05;66.38
5651;BME280;40241;52.684;9.758;2022-10-30T04:01:09;101469.28;;;16.03;66.22
5651;BME280;40241;52.684;9.758;2022-10-30T04:03:35;101474.34;;;15.99;66.29
5651;BME280;40241;52.684;9.758;2022-10-30T04:06:00;101468.53;;;15.97;66.12
5651;BME280;40241;52.684;9.758;2022-10-30T04:08:26;101469.03;;;15.95;66.15
5651;BME280;40241;52.684;9.758;2022-10-30T04:10:51;101475.34;;;15.90;66.08
5651;BME280;40241;52.684;9.758;2022-10-30T04:13:17;101467.31;;;15.87;66.30
5651;BME280;40241;52.684;9.758;2022-10-30T04:15:46;101472.59;;;15.85;66.18
5651;BME280;40241;52.684;9.758;2022-10-30T04:18:13;101468.06;;;15.82;66.23
5651;BME280;40241;52.684;9.758;2022-10-30T04:20:40;101479.94;;;15.82;66.20
5651;BME280;40241;52.684;9.758;2022-10-30T04:23:08;101467.34;;;15.81;66.21
5651;BME280;40241;52.684;9.758;2022-10-30T04:25:36;101488.78;;;15.81;66.28
5651;BME280;40241;52.684;9.758;2022-10-30T04:28:02;101476.91;;;15.80;66.28
5651;BME280;40241;52.684;9.758;2022-10-30T04:30:27;101475.91;;;15.77;66.08
5651;BME280;40241;52.684;9.758;2022-10-30T04:32:56;101464.31;;;15.73;66.01
5651;BME280;40241;52.684;9.758;2022-10-30T04:35:24;101468.84;;;15.71;66.01
5651;BME280;40241;52.684;9.758;2022-10-30T04:37:53;101463.31;;;15.71;66.09
5651;BME280;40241;52.684;9.758;2022-10-30T04:40:27;101455.25;;;15.67;65.98
5651;BME280;40241;52.684;9.758;2022-10-30T04:42:53;101460.81;;;15.62;66.14
5651;BME280;40241;52.684;9.758;2022-10-30T04:45:19;101464.34;;;15.62;66.25
5651;BME280;40241;52.684;9.758;2022-10-30T04:47:45;101462.31;;;15.63;66.29
5651;BME280;40241;52.684;9.758;2022-10-30T04:50:11;101458.53;;;15.60;66.20
5651;BME280;40241;52.684;9.758;2022-10-30T04:52:36;101469.63;;;15.60;66.32
5651;BME280;40241;52.684;9.758;2022-10-30T04:55:02;101471.16;;;15.61;66.07
5651;BME280;40241;52.684;9.758;2022-10-30T04:57:28;101459.81;;;15.59;66.16
5651;BME280;40241;52.684;9.758;2022-10-30T04:59:55;101452.50;;;15.56;66.13
5651;BME280;40241;52.684;9.758;2022-10-30T05:02:20;101461.34;;;15.55;66.15
5651;BME280;40241;52.684;9.758;2022-10-30T05:04:46;101459.81;;;15.54;66.01
5651;BME280;40241;52.684;9.758;2022-10-30T05:07:12;101463.09;;;15.52;66.30
5651;BME280;40241;52.684;9.758;2022-10-30T05:09:38;101457.03;;;15.54;66.29
5651;BME280;40241;52.684;9.758;2022-10-30T05:12:03;101447.97;;;15.53;66.19
5651;BME280;40241;52.684;9.758;2022-10-30T05:14:30;101453.25;;;15.51;66.23
5651;BME280;40241;52.684;9.758;2022-10-30T05:16:56;101455.03;;;15.49;66.22
5651;BME280;40241;52.684;9.758;2022-10-30T05:19:21;101469.66;;;15.49;66.29
5651;BME280;40241;52.684;9.758;2022-10-30T05:21:46;101470.16;;;15.48;66.29
5651;BME280;40241;52.684;9.758;2022-10-30T05:24:12;101471.41;;;15.47;66.16
5651;BME280;40241;52.684;9.758;2022-10-30T05:26:37;101467.41;;;15.48;66.22
5651;BME280;40241;52.684;9.758;2022-10-30T05:29:03;101477.47;;;15.45;66.23
5651;BME280;40241;52.684;9.758;2022-10-30T05:31:28;101464.34;;;15.40;66.11
5651;BME280;40241;52.684;9.758;2022-10-30T05:33:54;101459.06;;;15.37;66.21
5651;BME280;40241;52.684;9.758;2022-10-30T05:36:19;101461.59;;;15.35;66.15
5651;BME280;40241;52.684;9.758;2022-10-30T05:38:44;101464.34;;;15.35;66.23
5651;BME280;40241;52.684;9.758;2022-10-30T05:41:11;101456.28;;;15.37;66.29
5651;BME280;40241;52.684;9.758;2022-10-30T05:43:36;101456.28;;;15.37;66.27
5651;BME280;40241;52.684;9.758;2022-10-30T05:46:02;101466.63;;;15.36;66.31
5651;BME280;40241;52.684;9.758;2022-10-30T05:48:27;101463.31;;;15.38;66.08
5651;BME280;40241;52.684;9.758;2022-10-30T05:50:55;101459.06;;;15.37;66.26
5651;BME280;40241;52.684;9.758;2022-10-30T05:53:21;101483.75;;;15.35;66.29
5651;BME280;40241;52.684;9.758;2022-10-30T05:55:46;101470.16;;;15.37;66.31
5651;BME280;40241;52.684;9.758;2022-10-30T05:58:12;101469.63;;;15.38;66.26
5651;BME280;40241;52.684;9.758;2022-10-30T06:00:38;101467.13;;;15.35;66.23
5651;BME280;40241;52.684;9.758;2022-10-30T06:03:06;101474.16;;;15.36;66.27
5651;BME280;40241;52.684;9.758;2022-10-30T06:05:34;101487.53;;;15.32;66.31
5651;BME280;40241;52.684;9.758;2022-10-30T06:08:01;101477.72;;;15.31;66.36
5651;BME280;40241;52.684;9.758;2022-10-30T06:10:27;101486.03;;;15.31;66.31
5651;BME280;40241;52.684;9.758;2022-10-30T06:12:57;101474.19;;;15.30;66.19
5651;BME280;40241;52.684;9.758;2022-10-30T06:15:23;101479.72;;;15.30;66.23
5651;BME280;40241;52.684;9.758;2022-10-30T06:17:49;101480.50;;;15.31;66.30
5651;BME280;40241;52.684;9.758;2022-10-30T06:20:16;101488.31;;;15.32;66.37
5651;BME280;40241;52.684;9.758;2022-10-30T06:22:56;101489.78;;;15.33;66.28
5651;BME280;40241;52.684;9.758;2022-10-30T06:25:22;101505.19;;;15.34;66.46
5651;BME280;40241;52.684;9.758;2022-10-30T06:27:47;101507.44;;;15.36;66.30
5651;BME280;40241;52.684;9.758;2022-10-30T06:30:16;101499.13;;;15.36;66.37
5651;BME280;40241;52.684;9.758;2022-10-30T06:32:45;101502.66;;;15.36;66.43
5651;BME280;40241;52.684;9.758;2022-10-30T06:35:10;101501.16;;;15.35;66.24
5651;BME280;40241;52.684;9.758;2022-10-30T06:37:39;101503.19;;;15.35;66.34
5651;BME280;40241;52.684;9.758;2022-10-30T06:40:09;101509.47;;;15.35;66.28
5651;BME280;40241;52.684;9.758;2022-10-30T06:42:44;101501.16;;;15.35;66.41
5651;BME280;40241;52.684;9.758;2022-10-30T06:45:11;101512.25;;;15.35;66.36
5651;BME280;40241;52.684;9.758;2022-10-30T06:47:36;101513.25;;;15.38;66.47
5651;BME280;40241;52.684;9.758;2022-10-30T06:50:03;101512.50;;;15.37;66.29
5651;BME280;40241;52.684;9.758;2022-10-30T06:52:29;101514.00;;;15.38;66.40
5651;BME280;40241;52.684;9.758;2022-10-30T06:54:54;101513.25;;;15.38;66.55
5651;BME280;40241;52.684;9.758;2022-10-30T06:57:20;101526.09;;;15.41;66.37
5651;BME280;40241;52.684;9.758;2022-10-30T06:59:45;101526.34;;;15.43;66.37
5651;BME280;40241;52.684;9.758;2022-10-30T07:02:11;101519.84;;;15.46;66.46
5651;BME280;40241;52.684;9.758;2022-10-30T07:04:36;101531.69;;;15.46;66.49
5651;BME280;40241;52.684;9.758;2022-10-30T07:07:02;101515.78;;;15.47;66.41
5651;BME280;40241;52.684;9.758;2022-10-30T07:09:28;101524.09;;;15.47;66.50
5651;BME280;40241;52.684;9.758;2022-10-30T07:11:53;101528.41;;;15.48;66.57
5651;BME280;40241;52.684;9.758;2022-10-30T07:14:19;101527.66;;;15.47;66.47
5651;BME280;40241;52.684;9.758;2022-10-30T07:16:44;101532.94;;;15.45;66.46
5651;BME280;40241;52.684;9.758;2022-10-30T07:19:09;101537.44;;;15.43;66.45
5651;BME280;40241;52.684;9.758;2022-10-30T07:21:35;101527.09;;;15.38;66.61
5651;BME280;40241;52.684;9.758;2022-10-30T07:24:01;101522.84;;;15.37;66.62
5651;BME280;40241;52.684;9.758;2022-10-30T07:26:26;101528.38;;;15.37;66.50
5651;BME280;40241;52.684;9.758;2022-10-30T07:28:51;101542.22;;;15.31;66.63
5651;BME280;40241;52.684;9.758;2022-10-30T07:31:17;101541.97;;;15.29;66.67
5651;BME280;40241;52.684;9.758;2022-10-30T07:33:42;101536.44;;;15.29;66.77
5651;BME280;40241;52.684;9.758;2022-10-30T07:36:08;101543.00;;;15.32;66.76
5651;BME280;40241;52.684;9.758;2022-10-30T07:38:33;101538.22;;;15.32;66.75
5651;BME280;40241;52.684;9.758;2022-10-30T07:40:59;101540.72;;;15.36;66.96
5651;BME280;40241;52.684;9.758;2022-10-30T07:43:24;101548.78;;;15.34;66.59
5651;BME280;40241;52.684;9.758;2022-10-30T07:45:49;101552.06;;;15.27;66.94
5651;BME280;40241;52.684;9.758;2022-10-30T07:48:15;101547.28;;;15.22;67.07
5651;BME280;40241;52.684;9.758;2022-10-30T07:50:40;101550.31;;;15.24;67.23
5651;BME280;40241;52.684;9.758;2022-10-30T07:53:06;101563.66;;;15.25;67.11
5651;BME280;40241;52.684;9.758;2022-10-30T07:55:31;101558.63;;;15.24;67.10
5651;BME280;40241;52.684;9.758;2022-10-30T07:57:57;101558.34;;;15.27;67.13
5651;BME280;40241;52.684;9.758;2022-10-30T08:00:22;101560.38;;;15.32;66.89
5651;BME280;40241;52.684;9.758;2022-10-30T08:02:49;101553.09;;;15.35;66.93
5651;BME280;40241;52.684;9.758;2022-10-30T08:05:15;101555.59;;;15.38;66.95
5651;BME280;40241;52.684;9.758;2022-10-30T08:07:41;101550.31;;;15.35;66.84
5651;BME280;40241;52.684;9.758;2022-10-30T08:10:07;101565.66;;;15.36;66.92
5651;BME280;40241;52.684;9.758;2022-10-30T08:12:33;101555.84;;;15.40;66.98
5651;BME280;40241;52.684;9.758;2022-10-30T08:14:59;101557.16;;;15.45;66.86
5651;BME280;40241;52.684;9.758;2022-10-30T08:17:24;101556.41;;;15.50;66.87
5651;BME280;40241;52.684;9.758;2022-10-30T08:19:50;101569.75;;;15.46;66.80
5651;BME280;40241;52.684;9.758;2022-10-30T08:22:15;101567.00;;;15.46;67.18
5651;BME280;40241;52.684;9.758;2022-10-30T08:24:41;101558.16;;;15.53;67.13
5651;BME280;40241;52.684;9.758;2022-10-30T08:27:06;101560.94;;;15.58;66.95
5651;BME280;40241;52.684;9.758;2022-10-30T08:29:32;101569.00;;;15.56;67.03
5651;BME280;40241;52.684;9.758;2022-10-30T08:31:59;101569.50;;;15.60;67.00
5651;BME280;40241;52.684;9.758;2022-10-30T08:34:24;101576.31;;;15.65;67.12
5651;BME280;40241;52.684;9.758;2022-10-30T08:36:52;101584.13;;;15.72;67.07
5651;BME280;40241;52.684;9.758;2022-10-30T08:39:17;101573.78;;;15.78;67.11
5651;BME280;40241;52.684;9.758;2022-10-30T08:41:43;101586.38;;;15.85;67.05
5651;BME280;40241;52.684;9.758;2022-10-30T08:44:09;101576.78;;;15.91;67.02
5651;BME280;40241;52.684;9.758;2022-10-30T08:46:35;101585.09;;;15.97;67.15
5651;BME280;40241;52.684;9.758;2022-10-30T08:49:00;101569.94;;;16.03;67.07
5651;BME280;40241;52.684;9.758;2022-10-30T08:51:26;101581.56;;;16.07;67.05
5651;BME280;40241;52.684;9.758;2022-10-30T08:53:51;101583.31;;;16.16;67.25
5651;BME280;40241;52.684;9.758;2022-10-30T08:56:17;101587.84;;;16.24;67.23
5651;BME280;40241;52.684;9.758;2022-10-30T08:58:43;101587.03;;;16.29;67.15
5651;BME280;40241;52.684;9.758;2022-10-30T09:01:08;101592.06;;;16.36;67.22
5651;BME280;40241;52.684;9.758;2022-10-30T09:03:34;101594.56;;;16.45;67.16
5651;BME280;40241;52.684;9.758;2022-10-30T09:06:00;101584.47;;;16.54;67.30
5651;BME280;40241;52.684;9.758;2022-10-30T09:08:26;101587.72;;;16.63;67.04
5651;BME280;40241;52.684;9.758;2022-10-30T09:10:56;101589.22;;;16.70;67.31
5651;BME280;40241;52.684;9.758;2022-10-30T09:13:22;101591.47;;;16.77;67.15
5651;BME280;40241;52.684;9.758;2022-10-30T09:15:48;101588.63;;;16.88;67.19
5651;BME280;40241;52.684;9.758;2022-10-30T09:18:13;101587.31;;;16.94;67.37
5651;BME280;40241;52.684;9.758;2022-10-30T09:20:38;101597.63;;;17.05;67.14
5651;BME280;40241;52.684;9.758;2022-10-30T09:23:04;101592.25;;;17.12;67.18
5651;BME280;40241;52.684;9.758;2022-10-30T09:25:29;101595.25;;;17.20;67.23
5651;BME280;40241;52.684;9.758;2022-10-30T09:27:54;101589.38;;;17.29;67.17
5651;BME280;40241;52.684;9.758;2022-10-30T09:30:20;101589.56;;;17.37;67.33
5651;BME280;40241;52.684;9.758;2022-10-30T09:32:53;101589.50;;;17.48;67.50
5651;BME280;40241;52.684;9.758;2022-10-30T09:35:18;101593.75;;;17.54;67.36
5651;BME280;40241;52.684;9.758;2022-10-30T09:37:44;101593.44;;;17.63;67.26
5651;BME280;40241;52.684;9.758;2022-10-30T09:40:11;101590.56;;;17.74;67.41
5651;BME280;40241;52.684;9.758;2022-10-30T09:42:44;101594.00;;;17.86;67.40
5651;BME280;40241;52.684;9.758;2022-10-30T09:48:17;101598.84;;;18.10;67.27
5651;BME280;40241;52.684;9.758;2022-10-30T09:56:37;101584.56;;;18.43;67.19
5651;BME280;40241;52.684;9.758;2022-10-30T10:01:41;101590.84;;;18.67;67.08
5651;BME280;40241;52.684;9.758;2022-10-30T10:06:55;101588.75;;;18.92;66.65
5651;BME280;40241;52.684;9.758;2022-10-30T10:09:24;101599.00;;;19.03;66.54
5651;BME280;40241;52.684;9.758;2022-10-30T10:11:57;101589.19;;;19.15;66.08
5651;BME280;40241;52.684;9.758;2022-10-30T10:14:33;101598.16;;;19.26;66.21
5651;BME280;40241;52.684;9.758;2022-10-30T10:17:01;101592.44;;;19.37;66.00
5651;BME280;40241;52.684;9.758;2022-10-30T10:20:16;101595.81;;;19.49;65.89
5651;BME280;40241;52.684;9.758;2022-10-30T10:22:35;101591.09;;;19.57;65.87
5651;BME280;40241;52.684;9.758;2022-10-30T10:25:07;101585.88;;;19.67;65.12
5651;BME280;40241;52.684;9.758;2022-10-30T10:30:25;101588.72;;;19.93;64.26
5651;BME280;40241;52.684;9.758;2022-10-30T10:46:04;101570.25;;;20.42;63.80
5651;BME280;40241;52.684;9.758;2022-10-30T10:51:18;101562.81;;;20.58;62.93
5651;BME280;40241;52.684;9.758;2022-10-30T10:53:50;101562.28;;;20.72;62.93
5651;BME280;40241;52.684;9.758;2022-10-30T10:56:19;101566.09;;;20.82;63.18
5651;BME280;40241;52.684;9.758;2022-10-30T10:58:51;101560.25;;;20.93;62.88
5651;BME280;40241;52.684;9.758;2022-10-30T11:01:33;101552.94;;;21.04;62.48
5651;BME280;40241;52.684;9.758;2022-10-30T11:04:30;101554.50;;;21.12;62.70
5651;BME280;40241;52.684;9.758;2022-10-30T11:07:07;101552.22;;;21.24;62.88
5651;BME280;40241;52.684;9.758;2022-10-30T11:09:37;101551.94;;;21.35;62.73
5651;BME280;40241;52.684;9.758;2022-10-30T11:12:03;101553.91;;;21.47;62.46
5651;BME280;40241;52.684;9.758;2022-10-30T11:14:28;101548.25;;;21.60;61.84
5651;BME280;40241;52.684;9.758;2022-10-30T11:17:34;101538.50;;;21.82;59.41
5651;BME280;40241;52.684;9.758;2022-10-30T11:22:54;101549.31;;;22.34;60.36
5651;BME280;40241;52.684;9.758;2022-10-30T11:25:25;101552.78;;;22.56;59.98
5651;BME280;40241;52.684;9.758;2022-10-30T11:27:55;101545.78;;;22.77;59.04
5651;BME280;40241;52.684;9.758;2022-10-30T11:30:24;101543.41;;;22.96;59.15
5651;BME280;40241;52.684;9.758;2022-10-30T11:32:52;101536.69;;;23.07;58.70
5651;BME280;40241;52.684;9.758;2022-10-30T11:35:19;101543.63;;;23.21;58.64
5651;BME280;40241;52.684;9.758;2022-10-30T11:37:48;101544.56;;;23.31;58.43
5651;BME280;40241;52.684;9.758;2022-10-30T11:40:17;101538.44;;;23.40;58.44
5651;BME280;40241;52.684;9.758;2022-10-30T11:42:48;101533.38;;;23.54;58.73
5651;BME280;40241;52.684;9.758;2022-10-30T11:45:38;101532.97;;;23.72;56.89
5651;BME280;40241;52.684;9.758;2022-10-30T11:48:12;101533.34;;;23.92;57.14
5651;BME280;40241;52.684;9.758;2022-10-30T11:50:48;101528.09;;;24.11;57.07
5651;BME280;40241;52.684;9.758;2022-10-30T11:53:23;101519.94;;;24.30;55.58
5651;BME280;40241;52.684;9.758;2022-10-30T11:55:55;101527.56;;;24.52;56.63
5651;BME280;40241;52.684;9.758;2022-10-30T11:58:24;101517.19;;;24.62;56.44
5651;BME280;40241;52.684;9.758;2022-10-30T12:01:01;101521.84;;;24.67;54.93
5651;BME280;40241;52.684;9.758;2022-10-30T12:03:36;101514.84;;;24.83;55.20
5651;BME280;40241;52.684;9.758;2022-10-30T12:06:16;101514.19;;;25.00;54.82
5651;BME280;40241;52.684;9.758;2022-10-30T12:08:58;101517.06;;;25.17;53.40
5651;BME280;40241;52.684;9.758;2022-10-30T12:11:29;101513.72;;;25.36;54.00
5651;BME280;40241;52.684;9.758;2022-10-30T12:13:56;101516.13;;;25.47;54.69
5651;BME280;40241;52.684;9.758;2022-10-30T12:16:22;101511.81;;;25.63;54.79
5651;BME280;40241;52.684;9.758;2022-10-30T12:18:59;101510.94;;;25.77;53.32
5651;BME280;40241;52.684;9.758;2022-10-30T12:21:27;101508.53;;;25.91;54.32
5651;BME280;40241;52.684;9.758;2022-10-30T12:24:00;101514.16;;;26.08;53.24
5651;BME280;40241;52.684;9.758;2022-10-30T12:26:32;101504.66;;;26.21;53.79
5651;BME280;40241;52.684;9.758;2022-10-30T12:29:01;101500.56;;;26.31;53.31
5651;BME280;40241;52.684;9.758;2022-10-30T12:31:59;101499.00;;;26.38;51.78
5651;BME280;40241;52.684;9.758;2022-10-30T12:37:11;101493.38;;;26.64;51.31
5651;BME280;40241;52.684;9.758;2022-10-30T12:39:44;101505.38;;;26.65;52.20
5651;BME280;40241;52.684;9.758;2022-10-30T12:42:15;101505.72;;;26.69;52.28
5651;BME280;40241;52.684;9.758;2022-10-30T12:44:51;101503.47;;;26.67;51.73
5651;BME280;40241;52.684;9.758;2022-10-30T12:47:33;101497.78;;;26.58;50.69
5651;BME280;40241;52.684;9.758;2022-10-30T12:50:15;101491.88;;;26.63;51.05
5651;BME280;40241;52.684;9.758;2022-10-30T12:52:50;101501.84;;;26.64;51.06
5651;BME280;40241;52.684;9.758;2022-10-30T13:01:04;101489.19;;;26.65;50.77
5651;BME280;40241;52.684;9.758;2022-10-30T13:03:38;101499.41;;;26.61;51.16
5651;BME280;40241;52.684;9.758;2022-10-30T13:06:12;101489.19;;;26.65;51.24
5651;BME280;40241;52.684;9.758;2022-10-30T13:08:49;101489.19;;;26.65;51.52
5651;BME280;40241;52.684;9.758;2022-10-30T13:11:38;101489.19;;;26.65;50.16
5651;BME280;40241;52.684;9.758;2022-10-30T13:14:15;101492.94;;;26.68;50.53
5651;BME280;40241;52.684;9.758;2022-10-30T13:16:41;101489.66;;;26.71;51.86
5651;BME280;40241;52.684;9.758;2022-10-30T13:19:10;101496.91;;;26.65;50.93
5651;BME280;40241;52.684;9.758;2022-10-30T13:21:54;101488.97;;;26.54;50.04
5651;BME280;40241;52.684;9.758;2022-10-30T13:27:05;101489.59;;;26.35;50.85
5651;BME280;40241;52.684;9.758;2022-10-30T13:29:45;101481.72;;;26.34;51.71
5651;BME280;40241;52.684;9.758;2022-10-30T13:38:09;101474.13;;;26.10;51.81
5651;BME280;40241;52.684;9.758;2022-10-30T13:40:43;101466.91;;;25.99;52.08
5651;BME280;40241;52.684;9.758;2022-10-30T13:43:22;101476.03;;;25.90;51.33
5651;BME280;40241;52.684;9.758;2022-10-30T13:51:25;101464.31;;;25.59;51.82
5651;BME280;40241;52.684;9.758;2022-10-30T13:54:28;101473.66;;;25.45;52.57
5651;BME280;40241;52.684;9.758;2022-10-30T13:56:59;101475.25;;;25.30;53.22
5651;BME280;40241;52.684;9.758;2022-10-30T14:05:00;101469.13;;;25.00;53.88
5651;BME280;40241;52.684;9.758;2022-10-30T14:10:10;101470.41;;;24.74;53.89
5651;BME280;40241;52.684;9.758;2022-10-30T14:15:31;101478.63;;;24.47;54.40
5651;BME280;40241;52.684;9.758;2022-10-30T14:20:52;101487.31;;;24.27;55.37
5651;BME280;40241;52.684;9.758;2022-10-30T14:28:33;101471.47;;;24.07;55.33
5651;BME280;40241;52.684;9.758;2022-10-30T14:31:06;101475.63;;;23.98;55.40
5651;BME280;40241;52.684;9.758;2022-10-30T14:33:53;101469.81;;;23.89;55.50
5651;BME280;40241;52.684;9.758;2022-10-30T14:36:24;101470.00;;;23.83;55.59
5651;BME280;40241;52.684;9.758;2022-10-30T14:38:54;101469.09;;;23.73;55.96
5651;BME280;40241;52.684;9.758;2022-10-30T14:41:27;101467.81;;;23.66;56.01
5651;BME280;40241;52.684;9.758;2022-10-30T14:49:41;101462.97;;;23.44;55.89
5651;BME280;40241;52.684;9.758;2022-10-30T14:54:57;101464.28;;;23.28;56.44
5651;BME280;40241;52.684;9.758;2022-10-30T15:03:18;101451.34;;;23.02;57.17
5651;BME280;40241;52.684;9.758;2022-10-30T15:06:01;101457.72;;;22.95;57.10
5651;BME280;40241;52.684;9.758;2022-10-30T15:09:12;101445.34;;;22.83;57.53